Terminal Aerodrome Forecast
Issued by NWS Cleveland, OH

Home | Current Version | Previous Version | Graphics & Text | Print | Product List | Glossary Off
Versions: 1 2 3 4 5 6 7 8 9 10 11 12 13 14 15 16 17 18 19

000
FTUS41 KCLE 241513 AAA
TAFYNG
TAF AMD
KYNG 241513Z 2415/2512 20015G25KT P6SM SCT045 BKN200
     FM250000 19012KT P6SM SCT045 BKN200
     FM250500 20012KT P6SM VCTS SCT045CB BKN150
     FM251100 23012KT 6SM BR BKN025=

USA.gov is the U.S. government's official web portal to all federal, state and local government web resources and services.